This is the latest recevied weather packets stored in our database for station/object WA1TYB-13. If no packets are shown the sender has not sent any weather packets the latest 10 day(s).
| Time | Temp. | Humidity | Pressure | Rain* | Wind** | Luminosity | Snow |
|---|---|---|---|---|---|---|---|
| 1777608898 | 8.89° C | 45% | 1021.6 hPa | 0 mm | - | 0 W/m² | - |
| 1777608594 | 8.89° C | 45% | 1021.5 hPa | 0 mm | - | 0 W/m² | - |
| 1777608292 | 9.44° C | 44% | 1021.6 hPa | 0 mm | - | 0 W/m² | - |
| 1777607990 | 8.89° C | 44% | 1021.4 hPa | 0 mm | - | 0 W/m² | - |
| 1777607685 | 8.89° C | 46% | 1021.6 hPa | 0 mm | - | 0 W/m² | - |
| 1777607382 | 8.33° C | 48% | 1021.5 hPa | 0 mm | - | 0 W/m² | - |
| 1777607078 | 8.33° C | 48% | 1021.5 hPa | 0 mm | - | 0 W/m² | - |
| 1777606774 | 9.44° C | 44% | 1021.6 hPa | 0 mm | - | 0 W/m² | - |
| 1777606469 | 10° C | 41% | 1021.4 hPa | 0 mm | - | 0 W/m² | - |
| 1777606165 | 10.56° C | 37% | 1021.3 hPa | 0 mm | - | 0 W/m² | - |
| 1777605861 | 10.56° C | 37% | 1021.4 hPa | 0 mm | - | 0 W/m² | - |
| 1777605561 | 11.11° C | 36% | 1021.2 hPa | 0 mm | - | 0 W/m² | - |
| 1777605256 | 12.22° C | 33% | 1021.2 hPa | 0 mm | - | 0 W/m² | - |
| 1777604953 | 12.22° C | 32% | 1021.2 hPa | 0 mm | - | 0 W/m² | - |
| 1777604649 | 11.67° C | 32% | 1021.2 hPa | 0 mm | - | 0 W/m² | - |
| 1777604345 | 12.22° C | 32% | 1021.2 hPa | 0 mm | - | 0 W/m² | - |
| 1777604045 | 12.78° C | 33% | 1021.2 hPa | 0 mm | - | 0 W/m² | - |
| 1777603743 | 12.78° C | 30% | 1021.3 hPa | 0 mm | - | 0 W/m² | - |
| 1777603439 | 13.33° C | 31% | 1020.8 hPa | 0 mm | - | 0 W/m² | - |
| 1777603135 | 12.78° C | 31% | 1021.3 hPa | 0 mm | - | 1 W/m² | - |
| 1777602830 | 13.33° C | 32% | 1021.1 hPa | 0 mm | - | 3 W/m² | - |
| 1777602525 | 13.89° C | 30% | 1021.2 hPa | 0 mm | - | 5 W/m² | - |
| 1777602221 | 14.44° C | 28% | 1020.9 hPa | 0 mm | - | 8 W/m² | - |
| 1777601917 | 15° C | 28% | 1021.1 hPa | 0 mm | - | 11 W/m² | - |
| 1777601612 | 15.56° C | 28% | 1021.3 hPa | 0 mm | - | 14 W/m² | - |
* Rain latest hour (hover to see other rain measurements)
** Current wind speed in m/s (hover to see current wind gust speed)